sensor_id;sensor_type;location;lat;lon;timestamp;temperature;humidity
9668;DHT22;4872;48.316;10.650;2023-07-13T04:09:45;18.10;99.90
9668;DHT22;4872;48.316;10.650;2023-07-13T04:12:12;18.20;99.90
9668;DHT22;4872;48.316;10.650;2023-07-13T04:14:39;18.10;99.90
9668;DHT22;4872;48.316;10.650;2023-07-13T04:17:06;18.20;99.90
9668;DHT22;4872;48.316;10.650;2023-07-13T04:19:33;18.10;99.90
9668;DHT22;4872;48.316;10.650;2023-07-13T04:21:59;18.30;99.90
9668;DHT22;4872;48.316;10.650;2023-07-13T04:24:26;18.30;99.90
9668;DHT22;4872;48.316;10.650;2023-07-13T04:26:54;18.20;99.90
9668;DHT22;4872;48.316;10.650;2023-07-13T04:29:25;18.30;99.90
9668;DHT22;4872;48.316;10.650;2023-07-13T04:31:51;18.30;99.90
9668;DHT22;4872;48.316;10.650;2023-07-13T04:34:18;18.30;99.90
9668;DHT22;4872;48.316;10.650;2023-07-13T04:36:45;18.30;99.90
9668;DHT22;4872;48.316;10.650;2023-07-13T04:39:12;18.20;99.90
9668;DHT22;4872;48.316;10.650;2023-07-13T04:41:38;18.20;99.90
9668;DHT22;4872;48.316;10.650;2023-07-13T04:44:06;18.30;99.90
9668;DHT22;4872;48.316;10.650;2023-07-13T04:46:33;18.30;99.90
9668;DHT22;4872;48.316;10.650;2023-07-13T04:49:00;18.30;99.90
9668;DHT22;4872;48.316;10.650;2023-07-13T04:51:29;18.30;99.90
9668;DHT22;4872;48.316;10.650;2023-07-13T04:53:56;18.30;99.90
9668;DHT22;4872;48.316;10.650;2023-07-13T04:56:23;18.30;99.90
9668;DHT22;4872;48.316;10.650;2023-07-13T04:58:50;18.30;99.90
9668;DHT22;4872;48.316;10.650;2023-07-13T05:01:18;18.40;99.90
9668;DHT22;4872;48.316;10.650;2023-07-13T05:03:45;18.40;99.90
9668;DHT22;4872;48.316;10.650;2023-07-13T05:06:12;18.40;99.90
9668;DHT22;4872;48.316;10.650;2023-07-13T05:08:39;18.50;99.90
9668;DHT22;4872;48.316;10.650;2023-07-13T05:11:06;18.50;99.90
9668;DHT22;4872;48.316;10.650;2023-07-13T05:13:33;18.50;99.90
9668;DHT22;4872;48.316;10.650;2023-07-13T05:16:02;18.50;99.90
9668;DHT22;4872;48.316;10.650;2023-07-13T05:18:30;18.50;99.90
9668;DHT22;4872;48.316;10.650;2023-07-13T05:20:58;18.50;99.90
9668;DHT22;4872;48.316;10.650;2023-07-13T05:23:25;18.50;99.90
9668;DHT22;4872;48.316;10.650;2023-07-13T05:25:51;18.60;99.90
9668;DHT22;4872;48.316;10.650;2023-07-13T05:28:18;18.50;99.90
9668;DHT22;4872;48.316;10.650;2023-07-13T05:30:45;18.60;99.90
9668;DHT22;4872;48.316;10.650;2023-07-13T05:33:12;18.30;99.90
9668;DHT22;4872;48.316;10.650;2023-07-13T05:35:41;18.40;99.90
9668;DHT22;4872;48.316;10.650;2023-07-13T05:38:08;18.30;99.90
9668;DHT22;4872;48.316;10.650;2023-07-13T05:40:35;18.10;99.90
9668;DHT22;4872;48.316;10.650;2023-07-13T05:43:01;17.90;99.90
9668;DHT22;4872;48.316;10.650;2023-07-13T05:45:28;17.90;99.90
9668;DHT22;4872;48.316;10.650;2023-07-13T05:47:55;17.90;99.90
9668;DHT22;4872;48.316;10.650;2023-07-13T05:50:22;18.00;99.90
9668;DHT22;4872;48.316;10.650;2023-07-13T05:52:50;18.10;99.90
9668;DHT22;4872;48.316;10.650;2023-07-13T05:55:17;18.20;99.90
9668;DHT22;4872;48.316;10.650;2023-07-13T05:57:44;18.20;99.90
9668;DHT22;4872;48.316;10.650;2023-07-13T06:00:12;18.30;99.90
9668;DHT22;4872;48.316;10.650;2023-07-13T06:02:39;18.30;99.90
9668;DHT22;4872;48.316;10.650;2023-07-13T06:05:06;18.40;99.90
9668;DHT22;4872;48.316;10.650;2023-07-13T06:07:33;18.40;99.90
9668;DHT22;4872;48.316;10.650;2023-07-13T06:10:01;18.40;99.90
9668;DHT22;4872;48.316;10.650;2023-07-13T06:12:27;18.30;99.90
9668;DHT22;4872;48.316;10.650;2023-07-13T06:14:54;18.40;99.90
9668;DHT22;4872;48.316;10.650;2023-07-13T06:17:21;18.40;99.90
9668;DHT22;4872;48.316;10.650;2023-07-13T06:19:48;18.40;99.90
9668;DHT22;4872;48.316;10.650;2023-07-13T06:22:14;18.50;99.90
9668;DHT22;4872;48.316;10.650;2023-07-13T06:24:41;18.50;99.90
9668;DHT22;4872;48.316;10.650;2023-07-13T06:27:09;18.50;99.90
9668;DHT22;4872;48.316;10.650;2023-07-13T06:29:36;18.60;99.90
9668;DHT22;4872;48.316;10.650;2023-07-13T06:32:03;18.50;99.90
9668;DHT22;4872;48.316;10.650;2023-07-13T06:34:30;18.60;99.90
9668;DHT22;4872;48.316;10.650;2023-07-13T06:36:56;18.50;99.90
9668;DHT22;4872;48.316;10.650;2023-07-13T06:39:23;18.50;99.90
9668;DHT22;4872;48.316;10.650;2023-07-13T06:41:50;18.50;99.90
9668;DHT22;4872;48.316;10.650;2023-07-13T06:44:18;18.50;99.90
9668;DHT22;4872;48.316;10.650;2023-07-13T06:46:44;18.50;99.90
9668;DHT22;4872;48.316;10.650;2023-07-13T06:49:11;18.60;99.90
9668;DHT22;4872;48.316;10.650;2023-07-13T06:51:38;18.60;99.90
9668;DHT22;4872;48.316;10.650;2023-07-13T06:54:05;18.70;99.90
9668;DHT22;4872;48.316;10.650;2023-07-13T06:56:31;18.80;99.90
9668;DHT22;4872;48.316;10.650;2023-07-13T06:58:58;18.70;99.90
9668;DHT22;4872;48.316;10.650;2023-07-13T07:01:26;18.60;99.90
9668;DHT22;4872;48.316;10.650;2023-07-13T07:03:53;18.60;99.90
9668;DHT22;4872;48.316;10.650;2023-07-13T07:06:21;18.70;99.90
9668;DHT22;4872;48.316;10.650;2023-07-13T07:08:49;18.80;99.90
9668;DHT22;4872;48.316;10.650;2023-07-13T07:11:19;18.60;99.90
9668;DHT22;4872;48.316;10.650;2023-07-13T07:13:47;18.80;99.90
9668;DHT22;4872;48.316;10.650;2023-07-13T07:16:14;18.90;99.90
9668;DHT22;4872;48.316;10.650;2023-07-13T07:18:42;19.10;99.90
9668;DHT22;4872;48.316;10.650;2023-07-13T07:21:09;19.20;99.90
9668;DHT22;4872;48.316;10.650;2023-07-13T07:23:36;19.20;99.90
9668;DHT22;4872;48.316;10.650;2023-07-13T07:26:03;19.10;99.90
9668;DHT22;4872;48.316;10.650;2023-07-13T07:28:30;19.20;99.90
9668;DHT22;4872;48.316;10.650;2023-07-13T07:30:57;19.20;99.90
9668;DHT22;4872;48.316;10.650;2023-07-13T07:33:25;19.20;99.90
9668;DHT22;4872;48.316;10.650;2023-07-13T07:35:53;19.30;99.90
9668;DHT22;4872;48.316;10.650;2023-07-13T07:38:20;19.30;99.90
9668;DHT22;4872;48.316;10.650;2023-07-13T07:40:46;19.20;99.90
9668;DHT22;4872;48.316;10.650;2023-07-13T07:43:13;19.20;99.90
9668;DHT22;4872;48.316;10.650;2023-07-13T07:45:40;19.10;99.90
9668;DHT22;4872;48.316;10.650;2023-07-13T07:48:07;19.20;99.90
9668;DHT22;4872;48.316;10.650;2023-07-13T07:50:35;19.00;99.90
9668;DHT22;4872;48.316;10.650;2023-07-13T07:53:03;19.10;99.90
9668;DHT22;4872;48.316;10.650;2023-07-13T07:55:33;19.10;97.90
9668;DHT22;4872;48.316;10.650;2023-07-13T07:58:00;19.00;98.60
9668;DHT22;4872;48.316;10.650;2023-07-13T08:00:27;19.00;98.90
9668;DHT22;4872;48.316;10.650;2023-07-13T08:02:56;18.90;99.60
9668;DHT22;4872;48.316;10.650;2023-07-13T08:05:22;18.90;99.90
9668;DHT22;4872;48.316;10.650;2023-07-13T08:07:49;19.00;98.50
9668;DHT22;4872;48.316;10.650;2023-07-13T08:10:17;19.10;98.30
9668;DHT22;4872;48.316;10.650;2023-07-13T08:12:44;19.00;98.30
9668;DHT22;4872;48.316;10.650;2023-07-13T08:15:13;19.20;98.90
9668;DHT22;4872;48.316;10.650;2023-07-13T08:17:40;19.30;98.90
9668;DHT22;4872;48.316;10.650;2023-07-13T08:20:08;19.40;98.50
9668;DHT22;4872;48.316;10.650;2023-07-13T08:22:35;19.30;98.00
9668;DHT22;4872;48.316;10.650;2023-07-13T08:25:02;19.60;98.60
9668;DHT22;4872;48.316;10.650;2023-07-13T08:27:30;19.50;99.40
9668;DHT22;4872;48.316;10.650;2023-07-13T08:29:57;19.70;99.50
9668;DHT22;4872;48.316;10.650;2023-07-13T08:32:24;19.60;98.40
9668;DHT22;4872;48.316;10.650;2023-07-13T08:34:51;19.50;97.10
9668;DHT22;4872;48.316;10.650;2023-07-13T08:37:18;19.60;97.70
9668;DHT22;4872;48.316;10.650;2023-07-13T08:39:45;19.50;99.10
9668;DHT22;4872;48.316;10.650;2023-07-13T08:42:19;19.50;97.50
9668;DHT22;4872;48.316;10.650;2023-07-13T08:44:55;19.50;96.30
9668;DHT22;4872;48.316;10.650;2023-07-13T08:47:24;19.50;96.90
9668;DHT22;4872;48.316;10.650;2023-07-13T08:49:51;19.60;96.40
9668;DHT22;4872;48.316;10.650;2023-07-13T08:52:29;19.60;95.00
9668;DHT22;4872;48.316;10.650;2023-07-13T08:54:59;19.60;95.80
9668;DHT22;4872;48.316;10.650;2023-07-13T08:57:33;19.60;94.20
9668;DHT22;4872;48.316;10.650;2023-07-13T09:00:03;19.60;93.90
9668;DHT22;4872;48.316;10.650;2023-07-13T09:02:41;19.70;92.90
9668;DHT22;4872;48.316;10.650;2023-07-13T09:05:12;19.70;92.30
9668;DHT22;4872;48.316;10.650;2023-07-13T09:07:58;19.70;92.50
9668;DHT22;4872;48.316;10.650;2023-07-13T09:10:31;19.70;92.70
9668;DHT22;4872;48.316;10.650;2023-07-13T09:13:12;19.70;93.90
9668;DHT22;4872;48.316;10.650;2023-07-13T09:15:45;19.80;93.20
9668;DHT22;4872;48.316;10.650;2023-07-13T09:18:18;20.00;94.40
